Time;durP1;ratioP1;P1;durP2;ratioP2;P2;SDS_P1;SDS_P2;PMS_P1;PMS_P2;Temp;Humidity;BMP_temperature;BMP_pressure;BME280_temperature;BME280_humidity;BME280_pressure;Samples;Min_cycle;Max_cycle;Signal;HPM_P1;HPM_P2
2021/05/02 00:09:48;;;;;;;2.63;1.52;;;14.60;49.90;;;;;;20847777;28;20050;-71
2021/05/02 00:19:50;;;;;;;1.40;1.10;;;14.30;50.70;;;;;;20837037;28;20108;-66
2021/05/02 00:29:51;;;;;;;2.42;1.50;;;14.20;51.30;;;;;;20835037;28;20053;-54
2021/05/02 00:39:53;;;;;;;3.47;1.70;;;14.00;50.70;;;;;;20832292;28;20049;-67
2021/05/02 00:50:05;;;;;;;2.67;1.70;;;13.60;51.60;;;;;;20833499;28;20064;-67
2021/05/02 01:00:08;;;;;;;3.95;1.50;;;13.40;52.20;;;;;;20832822;28;20115;-68
2021/05/02 01:10:14;;;;;;;2.90;1.85;;;13.30;52.10;;;;;;20831060;28;20155;-68
2021/05/02 01:20:17;;;;;;;2.95;1.60;;;13.30;52.40;;;;;;20831801;28;20383;-66
2021/05/02 01:30:19;;;;;;;3.30;1.80;;;13.20;52.50;;;;;;20831808;28;20080;-66
2021/05/02 01:40:20;;;;;;;2.65;1.60;;;13.00;52.90;;;;;;20831694;28;20049;-65
2021/05/02 01:50:22;;;;;;;2.40;1.80;;;13.00;52.60;;;;;;20830578;28;20064;-61
2021/05/02 02:00:24;;;;;;;2.38;1.40;;;12.80;54.80;;;;;;20830083;28;20076;-64
2021/05/02 02:10:25;;;;;;;2.20;1.63;;;12.70;56.70;;;;;;20830006;28;20049;-56
2021/05/02 02:20:28;;;;;;;3.15;1.85;;;12.60;57.50;;;;;;20839396;28;20409;-57
2021/05/02 02:30:31;;;;;;;1.88;1.60;;;12.50;58.50;;;;;;20844241;28;20079;-56
2021/05/02 02:40:37;;;;;;;4.13;1.50;;;12.30;58.10;;;;;;20843800;28;20050;-55
2021/05/02 02:50:42;;;;;;;1.85;1.50;;;12.30;57.70;;;;;;20843322;28;20069;-64
2021/05/02 03:00:44;;;;;;;2.67;1.70;;;12.20;56.90;;;;;;20843120;28;20049;-64
2021/05/02 03:10:47;;;;;;;3.03;1.45;;;12.20;57.30;;;;;;20843123;28;20057;-64
2021/05/02 03:21:02;;;;;;;1.83;1.45;;;12.10;57.50;;;;;;20841797;28;20100;-69
2021/05/02 03:31:05;;;;;;;2.50;1.47;;;12.20;57.00;;;;;;20839483;28;20057;-56
2021/05/02 03:41:07;;;;;;;3.08;1.73;;;12.10;57.30;;;;;;20840075;28;20445;-62
2021/05/02 03:51:08;;;;;;;2.50;1.45;;;12.20;56.50;;;;;;20838709;28;20559;-55
2021/05/02 04:01:09;;;;;;;4.60;1.60;;;12.20;56.40;;;;;;20838088;28;20453;-56
2021/05/02 04:11:10;;;;;;;2.17;1.40;;;12.20;56.00;;;;;;20837322;28;20068;-57
2021/05/02 04:21:12;;;;;;;10.23;2.28;;;12.00;55.90;;;;;;20836693;28;20049;-68
2021/05/02 04:31:13;;;;;;;2.30;1.50;;;12.00;56.20;;;;;;20835731;28;20505;-66
2021/05/02 04:41:14;;;;;;;2.97;1.65;;;12.00;55.80;;;;;;20834729;28;20068;-55
2021/05/02 04:51:19;;;;;;;2.30;1.65;;;12.00;55.60;;;;;;20834425;28;20053;-57
2021/05/02 05:01:20;;;;;;;5.23;1.30;;;12.00;55.40;;;;;;20833518;28;20080;-58
2021/05/02 05:11:21;;;;;;;2.15;1.52;;;12.00;55.60;;;;;;20832359;28;20049;-55
2021/05/02 05:21:23;;;;;;;3.10;1.70;;;12.00;55.60;;;;;;20832492;28;20469;-58
2021/05/02 05:31:24;;;;;;;2.80;1.85;;;12.00;55.30;;;;;;20829653;28;20057;-63
2021/05/02 05:41:25;;;;;;;2.25;1.70;;;12.10;55.90;;;;;;20830364;28;20401;-56
2021/05/02 05:51:26;;;;;;;2.17;1.55;;;12.10;56.50;;;;;;20829404;28;20107;-56
2021/05/02 06:01:28;;;;;;;2.80;1.83;;;12.20;57.00;;;;;;20829553;28;20060;-57
2021/05/02 06:11:29;;;;;;;5.30;2.00;;;12.10;56.00;;;;;;20829094;28;20053;-57
2021/05/02 06:21:31;;;;;;;4.65;2.20;;;12.20;56.20;;;;;;20844728;28;20421;-58
2021/05/02 06:31:32;;;;;;;4.60;2.33;;;12.30;55.80;;;;;;20828013;28;20112;-56
2021/05/02 06:41:34;;;;;;;3.65;2.30;;;12.50;55.50;;;;;;20828893;28;20501;-56
2021/05/02 06:51:37;;;;;;;2.67;2.20;;;12.90;54.40;;;;;;20827679;28;20049;-56
2021/05/02 07:01:38;;;;;;;4.45;2.53;;;13.60;52.90;;;;;;20828727;28;20053;-55
2021/05/02 07:11:40;;;;;;;3.38;2.47;;;14.00;51.90;;;;;;20842056;28;20057;-68
2021/05/02 07:21:42;;;;;;;3.63;2.30;;;14.20;51.30;;;;;;20841557;28;20072;-62
2021/05/02 07:31:43;;;;;;;4.07;2.20;;;14.80;49.80;;;;;;20839521;28;20061;-68
2021/05/02 07:41:44;;;;;;;3.13;2.10;;;14.60;50.00;;;;;;20840157;28;20354;-57
2021/05/02 07:51:45;;;;;;;3.63;2.38;;;14.80;48.80;;;;;;20838645;28;20045;-64
2021/05/02 08:01:47;;;;;;;2.97;2.35;;;15.40;47.30;;;;;;20837641;28;20474;-56
2021/05/02 08:11:48;;;;;;;4.07;2.17;;;16.00;46.60;;;;;;20836725;28;20083;-56
2021/05/02 08:21:50;;;;;;;4.78;2.67;;;16.20;45.70;;;;;;20835786;28;20046;-57
2021/05/02 08:31:51;;;;;;;3.10;2.47;;;16.50;45.20;;;;;;20834910;28;20057;-56
2021/05/02 08:41:53;;;;;;;3.40;2.75;;;16.80;44.60;;;;;;20833103;28;20041;-68
2021/05/02 08:51:54;;;;;;;4.13;2.42;;;17.00;44.50;;;;;;20833508;28;20085;-56
2021/05/02 09:01:56;;;;;;;5.80;2.20;;;17.20;44.60;;;;;;20831147;28;20083;-56
2021/05/02 09:11:58;;;;;;;4.20;2.53;;;17.30;43.40;;;;;;20831956;28;20055;-55
2021/05/02 09:22:13;;;;;;;3.78;2.60;;;17.40;42.60;;;;;;20831316;28;20052;-56
2021/05/02 09:32:15;;;;;;;3.53;2.20;;;17.50;41.30;;;;;;20829759;28;20501;-56
2021/05/02 09:42:18;;;;;;;4.35;1.73;;;17.80;40.40;;;;;;20830391;28;20402;-56
2021/05/02 09:53:07;;;;;;;5.50;2.00;;;17.70;39.90;;;;;;20830120;28;20049;-55
2021/05/02 10:03:24;;;;;;;2.65;1.88;;;17.80;39.90;;;;;;20829300;28;20088;-61
2021/05/02 10:13:26;;;;;;;2.67;1.95;;;17.70;40.00;;;;;;20828453;28;20053;-65
2021/05/02 10:23:27;;;;;;;4.15;1.90;;;17.60;40.30;;;;;;20843612;28;20391;-56
2021/05/02 10:33:30;;;;;;;2.83;2.08;;;17.40;40.20;;;;;;20827505;28;20057;-56
2021/05/02 10:43:32;;;;;;;5.27;2.90;;;17.50;40.40;;;;;;20840746;28;20053;-55
2021/05/02 10:53:33;;;;;;;3.10;2.63;;;17.90;39.80;;;;;;20842287;28;20132;-55
2021/05/02 11:03:40;;;;;;;2.92;2.15;;;18.30;38.70;;;;;;20841005;28;20055;-68
2021/05/02 11:13:41;;;;;;;3.00;1.88;;;18.30;39.00;;;;;;20854384;28;20061;-67
2021/05/02 11:24:03;;;;;;;3.88;1.70;;;18.50;38.00;;;;;;20839735;28;20072;-65
2021/05/02 11:34:06;;;;;;;3.92;1.90;;;18.60;36.80;;;;;;20838881;28;20481;-67
2021/05/02 11:44:11;;;;;;;3.03;2.00;;;18.80;35.60;;;;;;20838418;28;20174;-58
2021/05/02 11:54:12;;;;;;;4.88;2.67;;;18.90;34.90;;;;;;20835565;28;20069;-57
2021/05/02 12:04:19;;;;;;;3.33;2.20;;;18.90;35.20;;;;;;20835990;28;20076;-58
2021/05/02 12:14:28;;;;;;;3.38;2.30;;;19.20;33.70;;;;;;20834559;28;20085;-56
2021/05/02 12:24:30;;;;;;;4.75;2.53;;;19.20;33.30;;;;;;20833763;28;20088;-59
2021/05/02 12:34:42;;;;;;;2.60;1.93;;;19.80;31.60;;;;;;20833389;28;20061;-64
2021/05/02 12:44:52;;;;;;;2.88;1.63;;;19.90;31.60;;;;;;20832549;28;20049;-65
2021/05/02 12:54:53;;;;;;;2.70;2.20;;;20.20;30.30;;;;;;20848058;28;20559;-56
2021/05/02 13:05:00;;;;;;;3.53;2.20;;;20.30;32.70;;;;;;20832692;28;20482;-57
2021/05/02 13:15:05;;;;;;;2.97;2.03;;;20.30;32.10;;;;;;20831146;28;20053;-56
2021/05/02 13:25:12;;;;;;;4.05;2.50;;;20.20;32.80;;;;;;20830766;28;20081;-56
2021/05/02 13:35:14;;;;;;;3.42;2.20;;;19.90;33.90;;;;;;20830875;28;20456;-64
2021/05/02 13:45:15;;;;;;;3.92;2.60;;;19.80;33.90;;;;;;20833844;28;20552;-65
2021/05/02 13:55:19;;;;;;;3.90;2.45;;;19.70;33.40;;;;;;20830099;28;20053;-57
2021/05/02 14:05:20;;;;;;;3.25;2.28;;;19.70;33.40;;;;;;20828948;28;20049;-66
2021/05/02 14:15:22;;;;;;;3.25;2.55;;;19.50;32.60;;;;;;20837245;28;20057;-61
2021/05/02 14:25:23;;;;;;;4.72;2.22;;;19.60;32.30;;;;;;20844778;28;20049;-55
2021/05/02 14:35:24;;;;;;;3.05;1.88;;;19.60;32.90;;;;;;20859979;28;20053;-57
2021/05/02 14:45:25;;;;;;;4.97;2.10;;;19.60;31.80;;;;;;20842856;28;20088;-56
2021/05/02 14:55:27;;;;;;;3.42;2.30;;;19.60;32.00;;;;;;20841886;28;20482;-66
2021/05/02 15:05:28;;;;;;;2.70;1.88;;;19.60;32.00;;;;;;20840963;28;20060;-55
2021/05/02 15:15:29;;;;;;;2.17;1.52;;;19.60;31.40;;;;;;20840677;28;20460;-66
2021/05/02 15:25:30;;;;;;;5.88;2.03;;;19.60;31.00;;;;;;20838661;28;20060;-55
2021/05/02 15:35:32;;;;;;;2.92;2.58;;;19.70;31.20;;;;;;20839631;28;20068;-65
2021/05/02 15:45:33;;;;;;;2.20;1.60;;;19.80;31.00;;;;;;20838723;28;20131;-55
2021/05/02 15:55:35;;;;;;;2.65;1.45;;;19.90;31.00;;;;;;20837736;28;20069;-57
2021/05/02 16:05:36;;;;;;;3.45;1.83;;;19.80;31.00;;;;;;20837917;28;20045;-67
2021/05/02 16:15:37;;;;;;;3.55;2.08;;;19.80;32.50;;;;;;20836476;28;20076;-67
2021/05/02 16:25:39;;;;;;;4.45;2.22;;;19.70;32.80;;;;;;20835911;28;20524;-67
2021/05/02 16:35:41;;;;;;;4.30;2.60;;;19.70;33.50;;;;;;20834658;28;20049;-66
2021/05/02 16:45:43;;;;;;;2.25;1.88;;;19.60;33.60;;;;;;20849000;28;20410;-58
2021/05/02 16:55:44;;;;;;;2.80;1.90;;;19.70;33.60;;;;;;20833057;28;20053;-66
2021/05/02 17:05:48;;;;;;;2.70;1.75;;;19.60;33.40;;;;;;20832337;28;20049;-62
2021/05/02 17:15:49;;;;;;;3.72;1.83;;;19.50;33.30;;;;;;20832055;28;20444;-55
2021/05/02 17:25:51;;;;;;;6.03;1.98;;;19.40;33.50;;;;;;20830767;28;20064;-67
2021/05/02 17:35:52;;;;;;;2.15;1.48;;;19.20;33.50;;;;;;20830563;28;20049;-55
2021/05/02 17:45:53;;;;;;;4.85;2.65;;;19.20;33.10;;;;;;20829246;28;20049;-55
2021/05/02 17:55:54;;;;;;;6.65;3.60;;;19.10;34.00;;;;;;20829986;28;20085;-57
2021/05/02 18:05:56;;;;;;;3.25;1.85;;;19.00;34.10;;;;;;20831885;28;20115;-55
2021/05/02 18:15:57;;;;;;;2.95;1.95;;;18.70;34.50;;;;;;20830649;28;20061;-56
2021/05/02 18:25:58;;;;;;;6.10;1.98;;;18.70;34.30;;;;;;20828080;28;20112;-58
2021/05/02 18:36:00;;;;;;;7.00;4.07;;;18.60;34.30;;;;;;20828209;28;20085;-67
2021/05/02 18:46:04;;;;;;;4.70;2.65;;;18.50;34.60;;;;;;20827591;28;20081;-64
2021/05/02 18:56:07;;;;;;;4.20;2.20;;;18.50;34.70;;;;;;20826795;28;20540;-64
2021/05/02 19:06:08;;;;;;;4.30;2.15;;;18.30;35.00;;;;;;20843155;28;20049;-67
2021/05/02 19:16:09;;;;;;;5.63;3.05;;;18.20;34.90;;;;;;20842161;28;20107;-67
2021/05/02 19:26:11;;;;;;;5.25;3.35;;;18.00;35.50;;;;;;20840361;28;20127;-68
2021/05/02 19:36:12;;;;;;;5.20;2.50;;;17.80;36.20;;;;;;20840691;28;20509;-67
2021/05/02 19:46:14;;;;;;;3.97;2.45;;;17.70;37.10;;;;;;20837782;28;20490;-56
2021/05/02 19:56:15;;;;;;;4.28;2.30;;;17.60;37.20;;;;;;20839363;28;20056;-66
2021/05/02 20:06:17;;;;;;;4.10;2.60;;;17.60;37.60;;;;;;20837707;28;20045;-66
2021/05/02 20:16:18;;;;;;;3.72;2.40;;;17.40;38.10;;;;;;20835987;28;20115;-67
2021/05/02 20:26:19;;;;;;;6.07;2.65;;;17.40;38.60;;;;;;20836198;28;20085;-69
2021/05/02 20:36:28;;;;;;;3.53;2.70;;;17.20;39.40;;;;;;20836213;28;20045;-66
2021/05/02 20:46:30;;;;;;;4.55;2.55;;;17.20;39.20;;;;;;20833300;28;20074;-71
2021/05/02 20:56:33;;;;;;;4.50;2.72;;;17.10;39.30;;;;;;20834094;28;20053;-66
2021/05/02 21:06:34;;;;;;;3.03;2.13;;;17.00;39.40;;;;;;20832824;28;20050;-55
2021/05/02 21:16:35;;;;;;;3.55;2.47;;;16.90;39.50;;;;;;20833041;28;20057;-67
2021/05/02 21:26:37;;;;;;;3.15;2.00;;;16.80;39.60;;;;;;20830074;28;20191;-68
2021/05/02 21:36:38;;;;;;;4.00;2.42;;;16.70;40.20;;;;;;20839819;28;20056;-55
2021/05/02 21:46:44;;;;;;;2.88;1.90;;;16.70;41.70;;;;;;20840480;28;20512;-65
2021/05/02 21:56:48;;;;;;;3.20;1.98;;;16.40;42.90;;;;;;20835820;28;20139;-69
2021/05/02 22:06:51;;;;;;;3.17;2.30;;;16.30;43.70;;;;;;20832490;28;20100;-68
2021/05/02 22:16:52;;;;;;;3.28;2.00;;;16.20;44.40;;;;;;20829477;28;20430;-68
2021/05/02 22:26:53;;;;;;;3.85;2.08;;;16.00;45.00;;;;;;20829143;28;20063;-61
2021/05/02 22:36:55;;;;;;;2.72;1.75;;;15.90;45.20;;;;;;20838202;28;20069;-64
2021/05/02 22:46:58;;;;;;;3.20;1.90;;;15.60;45.80;;;;;;20844698;28;20081;-63
2021/05/02 22:57:00;;;;;;;3.00;2.20;;;15.60;46.10;;;;;;20843584;28;20056;-59
2021/05/02 23:07:01;;;;;;;3.05;1.80;;;15.40;46.40;;;;;;20843118;28;20045;-59
2021/05/02 23:17:02;;;;;;;4.70;2.20;;;15.30;46.80;;;;;;20857120;28;20057;-55
2021/05/02 23:27:05;;;;;;;2.17;1.50;;;15.20;47.30;;;;;;20841205;28;20510;-55
2021/05/02 23:37:06;;;;;;;3.95;2.38;;;15.10;48.00;;;;;;20840903;28;20058;-55
2021/05/02 23:47:09;;;;;;;6.00;2.38;;;14.90;48.60;;;;;;20837773;28;20472;-55
2021/05/02 23:57:10;;;;;;;2.08;1.73;;;14.90;49.20;;;;;;20838799;28;20053;-56
